Time;durP1;ratioP1;P1;durP2;ratioP2;P2;SDS_P1;SDS_P2;PMS_P1;PMS_P2;Temp;Humidity;BMP_temperature;BMP_pressure;BME280_temperature;BME280_humidity;BME280_pressure;Samples;Min_cycle;Max_cycle;Signal;HPM_P1;HPM_P2
2023/01/25 00:01:51;;;;;;;25.27;15.60;;;0.40;99.90;;;;;;5077277;28;20691;-87
2023/01/25 00:04:20;;;;;;;27.37;16.63;;;0.40;99.90;;;;;;5109303;28;20122;-86
2023/01/25 00:06:46;;;;;;;27.80;15.63;;;0.40;99.90;;;;;;5076969;28;20083;-87
2023/01/25 00:09:12;;;;;;;27.60;17.00;;;0.10;99.90;;;;;;5097109;28;20564;-86
2023/01/25 00:11:38;;;;;;;28.97;16.43;;;0.10;99.90;;;;;;5077229;28;20036;-86
2023/01/25 00:14:04;;;;;;;27.40;16.77;;;0.10;99.90;;;;;;5100435;28;20111;-87
2023/01/25 00:16:30;;;;;;;28.67;17.60;;;0.30;99.90;;;;;;5065549;28;20031;-86
2023/01/25 00:18:56;;;;;;;30.63;17.93;;;0.30;99.90;;;;;;5095204;28;20038;-86
2023/01/25 00:21:23;;;;;;;30.43;17.37;;;0.30;99.90;;;;;;5077274;28;20135;-86
2023/01/25 00:23:49;;;;;;;26.60;15.83;;;0.30;99.90;;;;;;5086053;28;20040;-86
2023/01/25 00:26:15;;;;;;;29.80;17.17;;;0.40;99.90;;;;;;5077046;28;20040;-86
2023/01/25 00:28:41;;;;;;;28.20;16.23;;;0.30;99.90;;;;;;5077401;28;20570;-86
2023/01/25 00:31:14;;;;;;;28.80;16.70;;;0.30;99.90;;;;;;5065926;28;20036;-86
2023/01/25 00:33:55;;;;;;;28.70;16.33;;;0.30;99.90;;;;;;5074387;28;20036;-87
2023/01/25 00:36:40;;;;;;;30.50;16.60;;;0.40;99.90;;;;;;5087354;28;20408;-86
2023/01/25 00:39:09;;;;;;;31.03;17.40;;;0.40;99.90;;;;;;5089088;28;20040;-86
2023/01/25 00:41:34;;;;;;;29.37;16.63;;;0.40;99.90;;;;;;5084983;28;20071;-87
2023/01/25 00:44:00;;;;;;;30.37;17.60;;;0.40;99.90;;;;;;5076767;28;20524;-86
2023/01/25 00:46:26;;;;;;;30.60;17.43;;;0.40;99.90;;;;;;5085450;28;20106;-86
2023/01/25 00:48:53;;;;;;;30.37;17.70;;;0.40;99.90;;;;;;5080949;28;20497;-86
2023/01/25 00:51:20;;;;;;;29.90;17.53;;;0.40;99.90;;;;;;5060883;28;20114;-87
2023/01/25 00:53:46;;;;;;;29.50;17.40;;;0.30;99.90;;;;;;5075963;28;20040;-87
2023/01/25 00:56:11;;;;;;;29.43;17.17;;;0.30;99.90;;;;;;5079999;28;20458;-87
2023/01/25 00:58:37;;;;;;;30.57;16.50;;;0.20;99.90;;;;;;5084376;28;20036;-86
2023/01/25 01:01:02;;;;;;;27.40;15.77;;;0.20;99.90;;;;;;5099064;28;20078;-86
2023/01/25 01:03:28;;;;;;;29.17;16.57;;;1.20;99.90;;;;;;5102845;27;20561;-86
2023/01/25 01:06:06;;;;;;;29.07;16.23;;;0.10;99.90;;;;;;5094530;28;20036;-86
2023/01/25 01:08:33;;;;;;;29.60;16.23;;;0.10;99.90;;;;;;5078955;28;20071;-86
2023/01/25 01:11:05;;;;;;;27.37;15.73;;;0.20;99.90;;;;;;5094756;28;20067;-86
2023/01/25 01:13:31;;;;;;;30.07;17.13;;;0.80;99.90;;;;;;5084097;28;20031;-86
2023/01/25 01:16:01;;;;;;;28.77;16.83;;;0.20;99.90;;;;;;5080820;28;20050;-87
2023/01/25 01:18:27;;;;;;;30.37;17.47;;;0.30;99.90;;;;;;5083450;28;20554;-86
2023/01/25 01:20:53;;;;;;;30.23;16.77;;;0.30;99.90;;;;;;5086993;28;20031;-87
2023/01/25 01:23:19;;;;;;;32.27;17.90;;;0.30;99.90;;;;;;5075723;28;20517;-85
2023/01/25 01:25:45;;;;;;;32.60;17.67;;;0.30;99.90;;;;;;5080179;28;20065;-87
2023/01/25 01:28:11;;;;;;;34.03;18.63;;;0.30;99.90;;;;;;5078331;28;20553;-86
2023/01/25 01:30:37;;;;;;;34.87;19.00;;;0.30;99.90;;;;;;5078082;28;20042;-86
2023/01/25 01:33:03;;;;;;;35.80;18.93;;;0.30;99.90;;;;;;5083498;27;20043;-87
2023/01/25 01:35:30;;;;;;;32.03;18.27;;;0.30;99.90;;;;;;5093847;27;20038;-87
2023/01/25 01:37:55;;;;;;;31.83;18.43;;;0.30;99.90;;;;;;5108212;27;20037;-86
2023/01/25 01:40:21;;;;;;;34.87;19.57;;;0.20;99.90;;;;;;5085470;27;20528;-86
2023/01/25 01:42:56;;;;;;;35.07;19.50;;;0.20;99.90;;;;;;5092158;28;20110;-86
2023/01/25 01:45:51;;;;;;;35.87;19.57;;;0.10;99.90;;;;;;5087884;28;20086;-87
2023/01/25 01:48:16;;;;;;;;;;;0.30;99.90;;;;;;5096394;28;20039;-86
2023/01/25 01:50:42;;;;;;;33.67;18.53;;;0.10;99.90;;;;;;5077465;28;19998;-86
2023/01/25 01:53:08;;;;;;;37.47;19.83;;;0.10;99.90;;;;;;5077462;28;20071;-86
2023/01/25 01:55:35;;;;;;;36.57;19.37;;;0.00;99.90;;;;;;5093797;27;20038;-86
2023/01/25 01:58:02;;;;;;;38.43;20.43;;;0.10;99.90;;;;;;5080129;28;20662;-86
2023/01/25 02:00:39;;;;;;;33.83;18.30;;;0.10;99.90;;;;;;5085869;28;20034;-86
2023/01/25 02:03:05;;;;;;;37.10;19.90;;;0.10;99.90;;;;;;5065216;28;20074;-87
2023/01/25 02:05:49;;;;;;;35.67;19.33;;;0.10;99.90;;;;;;5087434;28;20747;-86
2023/01/25 02:08:16;;;;;;;36.43;20.03;;;0.10;99.90;;;;;;5096981;27;20078;-87
2023/01/25 02:10:43;;;;;;;40.67;20.77;;;0.20;99.90;;;;;;5086358;28;20032;-86
2023/01/25 02:13:09;;;;;;;37.80;20.83;;;0.20;99.90;;;;;;5109744;27;20041;-86
2023/01/25 02:15:42;;;;;;;40.17;21.07;;;0.10;99.90;;;;;;5103788;27;20043;-87
2023/01/25 02:18:11;;;;;;;37.63;20.67;;;0.10;99.90;;;;;;5081631;27;20038;-86
2023/01/25 02:20:43;;;;;;;38.90;20.57;;;0.20;99.90;;;;;;5106399;27;20034;-86
2023/01/25 02:23:13;;;;;;;43.47;22.80;;;0.20;99.90;;;;;;5082486;27;20031;-87
2023/01/25 02:25:40;;;;;;;42.80;22.37;;;0.20;99.90;;;;;;5080130;28;20047;-86
2023/01/25 02:28:14;;;;;;;46.63;24.73;;;0.20;99.90;;;;;;5102988;27;20039;-86
2023/01/25 02:30:41;;;;;;;46.77;24.73;;;0.10;99.90;;;;;;5082674;27;20038;-86
2023/01/25 02:33:07;;;;;;;50.10;26.23;;;0.10;99.90;;;;;;5079554;27;20039;-86
2023/01/25 02:35:50;;;;;;;50.17;25.20;;;0.10;99.90;;;;;;5083283;27;20084;-86
2023/01/25 02:38:17;;;;;;;50.37;25.60;;;0.00;99.90;;;;;;5083882;27;20521;-86
2023/01/25 02:40:54;;;;;;;49.87;26.03;;;0.00;99.90;;;;;;5106798;27;20031;-86
2023/01/25 02:43:21;;;;;;;52.07;25.43;;;0.00;99.90;;;;;;5090079;27;20136;-86
2023/01/25 02:45:51;;;;;;;53.87;25.10;;;0.00;99.90;;;;;;5114571;27;20039;-86
2023/01/25 02:48:16;;;;;;;49.27;24.77;;;0.00;99.90;;;;;;5083742;28;20027;-86
2023/01/25 02:50:42;;;;;;;49.87;25.20;;;0.00;99.90;;;;;;5080225;28;20105;-87
2023/01/25 02:53:07;;;;;;;50.13;25.80;;;0.00;99.90;;;;;;5086926;27;20039;-86
2023/01/25 02:55:33;;;;;;;50.63;25.97;;;0.00;99.90;;;;;;5109231;28;20039;-87
2023/01/25 02:57:58;;;;;;;52.23;26.70;;;0.00;99.90;;;;;;5059601;28;20092;-87
2023/01/25 03:00:24;;;;;;;55.97;28.30;;;0.00;99.90;;;;;;5098519;28;20050;-86
2023/01/25 03:02:49;;;;;;;58.50;27.30;;;-0.10;99.90;;;;;;5093922;28;20043;-86
2023/01/25 03:05:15;;;;;;;51.97;26.20;;;0.00;99.90;;;;;;5081383;27;20459;-86
2023/01/25 03:07:41;;;;;;;56.63;26.83;;;-0.10;99.90;;;;;;5096077;28;20497;-87
2023/01/25 03:10:07;;;;;;;56.63;28.17;;;-0.10;99.90;;;;;;5093735;27;20035;-86
2023/01/25 03:12:32;;;;;;;59.67;27.80;;;0.00;99.90;;;;;;5080599;27;20031;-87
2023/01/25 03:14:58;;;;;;;59.13;28.07;;;-0.10;99.90;;;;;;5085902;28;20031;-86
2023/01/25 03:17:23;;;;;;;61.37;29.17;;;-0.20;99.90;;;;;;5079446;27;20142;-86
2023/01/25 03:19:49;;;;;;;54.87;26.90;;;0.40;99.90;;;;;;5085669;28;20396;-86
2023/01/25 03:22:15;;;;;;;59.57;28.40;;;-0.20;99.90;;;;;;5079068;28;20043;-86
2023/01/25 03:24:40;;;;;;;59.87;28.13;;;-0.30;99.90;;;;;;5091320;27;20408;-86
2023/01/25 03:27:17;;;;;;;58.67;27.73;;;-0.30;99.90;;;;;;5078971;27;20512;-86
2023/01/25 03:29:43;;;;;;;53.50;26.73;;;-0.20;99.90;;;;;;5099514;28;20031;-86
2023/01/25 03:32:09;;;;;;;59.10;27.93;;;-0.30;99.90;;;;;;5085788;27;20069;-86
2023/01/25 03:34:35;;;;;;;55.30;27.23;;;-0.30;99.90;;;;;;5084212;28;20551;-86
2023/01/25 03:37:00;;;;;;;50.53;24.60;;;-0.30;99.90;;;;;;5110877;27;20122;-86
2023/01/25 03:39:27;;;;;;;53.17;25.87;;;-0.30;99.90;;;;;;5102530;27;20493;-86
2023/01/25 03:41:52;;;;;;;54.23;26.87;;;-0.20;99.90;;;;;;5077054;28;20032;-86
2023/01/25 03:44:18;;;;;;;53.37;25.97;;;-0.30;99.90;;;;;;5092639;28;20540;-87
2023/01/25 03:46:43;;;;;;;55.77;25.73;;;-0.30;99.90;;;;;;5085433;27;20054;-87
2023/01/25 03:49:09;;;;;;;55.53;26.13;;;-0.30;99.90;;;;;;5078070;28;20497;-86
2023/01/25 03:51:35;;;;;;;54.47;25.50;;;-0.40;99.90;;;;;;5084269;27;20035;-86
2023/01/25 03:54:01;;;;;;;58.07;28.03;;;-0.30;99.90;;;;;;5105627;28;20038;-86
2023/01/25 03:56:26;;;;;;;56.10;26.07;;;-0.30;99.90;;;;;;5095214;28;20031;-87
2023/01/25 03:58:52;;;;;;;54.03;26.20;;;-0.30;99.90;;;;;;5085739;28;20110;-87
2023/01/25 04:01:18;;;;;;;58.67;27.23;;;-0.30;99.90;;;;;;5080151;28;20024;-86
2023/01/25 04:03:43;;;;;;;56.83;27.30;;;-0.30;99.90;;;;;;5094914;28;20048;-86
2023/01/25 04:06:09;;;;;;;59.53;28.07;;;-0.30;99.90;;;;;;5088710;28;20064;-86
2023/01/25 04:08:35;;;;;;;57.43;27.07;;;-0.30;99.90;;;;;;5100985;28;20048;-86
2023/01/25 04:11:04;;;;;;;57.60;27.83;;;-0.30;99.90;;;;;;5076661;28;20061;-86
2023/01/25 04:13:30;;;;;;;54.63;27.40;;;-0.30;99.90;;;;;;5063942;28;20036;-86
2023/01/25 04:15:55;;;;;;;58.47;26.47;;;-0.40;99.90;;;;;;5066050;28;20040;-86
2023/01/25 04:18:21;;;;;;;56.97;26.63;;;-0.50;99.90;;;;;;5101720;28;20039;-86
2023/01/25 04:20:52;;;;;;;56.70;27.47;;;-0.40;99.90;;;;;;5077134;28;20032;-86
2023/01/25 04:23:18;;;;;;;57.50;27.50;;;-0.40;99.90;;;;;;5084124;28;20023;-86
2023/01/25 04:25:55;;;;;;;55.77;27.07;;;-0.40;99.90;;;;;;5081677;28;20170;-86
2023/01/25 04:28:21;;;;;;;59.93;28.00;;;-0.40;99.90;;;;;;5088611;28;20070;-86
2023/01/25 04:30:46;;;;;;;59.40;28.90;;;-0.40;99.90;;;;;;5082910;28;20040;-87
2023/01/25 04:33:12;;;;;;;56.90;27.93;;;-0.40;99.90;;;;;;5078826;28;20131;-87
2023/01/25 04:35:38;;;;;;;57.37;26.90;;;-0.40;99.90;;;;;;5083068;28;20031;-86
2023/01/25 04:38:03;;;;;;;56.93;27.63;;;-0.40;99.90;;;;;;5081348;28;20501;-87
2023/01/25 04:40:29;;;;;;;57.03;27.83;;;-0.40;99.90;;;;;;5085250;28;20085;-86
2023/01/25 04:42:55;;;;;;;59.33;28.23;;;-0.40;99.90;;;;;;5088861;28;20584;-86
2023/01/25 04:45:22;;;;;;;62.63;30.27;;;-0.30;99.90;;;;;;5089798;27;20043;-86
2023/01/25 04:47:48;;;;;;;59.23;29.03;;;-0.40;99.90;;;;;;5079887;28;20053;-86
2023/01/25 04:50:14;;;;;;;59.30;28.03;;;-0.40;99.90;;;;;;5087820;27;20681;-86
2023/01/25 04:52:40;;;;;;;58.33;28.03;;;-0.40;99.90;;;;;;5103324;27;20114;-86
2023/01/25 04:55:05;;;;;;;55.40;27.30;;;-0.40;99.90;;;;;;5093441;27;20041;-86
2023/01/25 04:57:31;;;;;;;54.80;27.87;;;-0.40;99.90;;;;;;5087442;28;20137;-87
2023/01/25 04:59:56;;;;;;;55.63;27.80;;;-0.40;99.90;;;;;;5082384;28;20035;-86
2023/01/25 05:02:22;;;;;;;58.20;28.47;;;-0.40;99.90;;;;;;5080597;28;20412;-86
2023/01/25 05:04:47;;;;;;;57.60;28.53;;;-0.40;99.90;;;;;;5100892;27;20080;-86
2023/01/25 05:07:13;;;;;;;57.57;28.10;;;-0.50;99.90;;;;;;5085975;28;20051;-87
2023/01/25 05:09:39;;;;;;;59.23;29.17;;;-0.50;99.90;;;;;;5101972;27;20046;-86
2023/01/25 05:12:10;;;;;;;61.03;29.53;;;-0.50;99.90;;;;;;5096124;27;20094;-86
2023/01/25 05:14:37;;;;;;;57.33;29.17;;;-0.50;99.90;;;;;;5100016;27;20084;-86
2023/01/25 05:17:03;;;;;;;56.43;27.60;;;-0.50;99.90;;;;;;5117272;27;20075;-86
2023/01/25 05:19:28;;;;;;;60.47;28.97;;;-0.60;99.90;;;;;;5083293;28;20478;-86
2023/01/25 05:21:57;;;;;;;60.13;29.80;;;-0.50;99.90;;;;;;5078815;28;20031;-86
2023/01/25 05:24:23;;;;;;;63.10;31.00;;;-0.50;99.90;;;;;;5084052;28;20042;-87
2023/01/25 05:27:04;;;;;;;61.40;29.70;;;-0.50;99.90;;;;;;5092753;28;20066;-86
2023/01/25 05:29:30;;;;;;;63.27;28.70;;;-0.50;99.90;;;;;;5081519;28;20555;-86
2023/01/25 05:31:57;;;;;;;59.00;29.67;;;-0.50;99.90;;;;;;5078978;28;20408;-86
2023/01/25 05:34:22;;;;;;;62.57;30.60;;;-0.50;99.90;;;;;;5075523;28;20046;-87
2023/01/25 05:36:48;;;;;;;58.83;29.13;;;-0.40;99.90;;;;;;5070835;28;20036;-87
2023/01/25 05:39:13;;;;;;;62.63;28.60;;;-0.50;99.90;;;;;;5102442;27;20074;-87
2023/01/25 05:41:39;;;;;;;60.47;29.27;;;-0.50;99.90;;;;;;5087485;27;20042;-87
2023/01/25 05:44:04;;;;;;;63.07;29.90;;;-0.40;99.90;;;;;;5102817;28;20035;-86
2023/01/25 05:46:30;;;;;;;58.90;28.17;;;-0.50;99.90;;;;;;5080942;28;20470;-86
2023/01/25 05:48:56;;;;;;;60.73;28.47;;;-0.50;99.90;;;;;;5073103;28;20040;-86
2023/01/25 05:51:21;;;;;;;59.87;29.07;;;-0.60;99.90;;;;;;5079168;27;20035;-87
2023/01/25 05:53:47;;;;;;;58.80;28.57;;;-0.60;99.90;;;;;;5108819;27;20173;-86
2023/01/25 05:56:12;;;;;;;60.60;29.03;;;-0.60;99.90;;;;;;5093381;27;20393;-86
2023/01/25 05:58:38;;;;;;;59.17;28.57;;;-0.60;99.90;;;;;;5103566;27;20489;-86
2023/01/25 06:01:06;;;;;;;61.20;28.83;;;-0.60;99.90;;;;;;5086322;28;20422;-86
2023/01/25 06:03:32;;;;;;;60.20;28.77;;;-0.70;99.90;;;;;;5095973;28;20173;-86
2023/01/25 06:06:01;;;;;;;61.00;28.90;;;-0.70;99.90;;;;;;5093778;27;20039;-86
2023/01/25 06:08:28;;;;;;;58.33;28.07;;;-0.70;99.90;;;;;;5093169;28;20032;-86
2023/01/25 06:10:53;;;;;;;59.60;28.10;;;-0.70;99.90;;;;;;5085208;28;20035;-87
2023/01/25 06:13:21;;;;;;;57.00;26.33;;;-0.70;99.90;;;;;;5098416;28;20104;-86
2023/01/25 06:15:54;;;;;;;58.37;25.70;;;-0.80;99.90;;;;;;5094857;28;20082;-86
2023/01/25 06:18:20;;;;;;;54.65;24.45;;;-0.80;99.90;;;;;;5078663;28;20467;-86
2023/01/25 06:20:46;;;;;;;56.47;26.37;;;-0.80;99.90;;;;;;5079009;28;20035;-86
2023/01/25 06:23:12;;;;;;;58.83;27.67;;;-0.80;99.90;;;;;;5078995;28;20050;-87
2023/01/25 06:25:37;;;;;;;55.73;25.97;;;-0.80;99.90;;;;;;5078893;28;20400;-87
2023/01/25 06:28:03;;;;;;;61.50;27.57;;;-0.80;99.90;;;;;;5078379;28;20244;-87
2023/01/25 06:30:29;;;;;;;60.53;28.17;;;-0.70;99.90;;;;;;5078524;28;20047;-87
2023/01/25 06:32:57;;;;;;;64.23;28.73;;;-0.70;99.90;;;;;;5078517;28;20043;-87
2023/01/25 06:35:22;;;;;;;60.33;27.97;;;-0.70;99.90;;;;;;5079018;28;20039;-87
2023/01/25 06:37:48;;;;;;;57.47;28.03;;;-0.70;99.90;;;;;;5078199;28;20085;-86
2023/01/25 06:40:14;;;;;;;60.87;28.93;;;-0.70;99.90;;;;;;5094504;28;20127;-87
2023/01/25 06:42:39;;;;;;;61.00;28.67;;;-0.70;99.90;;;;;;5094255;28;20058;-86
2023/01/25 06:45:05;;;;;;;59.83;27.17;;;-0.70;99.90;;;;;;5095291;28;20074;-87
2023/01/25 06:47:31;;;;;;;59.73;28.23;;;-0.70;99.90;;;;;;5077906;28;20086;-87
2023/01/25 06:49:56;;;;;;;57.60;27.67;;;-0.70;99.90;;;;;;5078812;28;20130;-87
2023/01/25 06:52:22;;;;;;;57.80;27.50;;;-0.70;99.90;;;;;;5078454;28;20451;-87
2023/01/25 06:54:47;;;;;;;59.87;28.00;;;-0.70;99.90;;;;;;5091902;28;20051;-87
2023/01/25 06:57:13;;;;;;;60.63;28.33;;;-0.70;99.90;;;;;;5091268;27;20051;-86
2023/01/25 06:59:38;;;;;;;57.07;28.00;;;-0.70;99.90;;;;;;5079493;28;20028;-87
2023/01/25 07:02:04;;;;;;;55.70;26.70;;;-0.70;99.90;;;;;;5077136;28;20043;-87
2023/01/25 07:04:30;;;;;;;58.67;28.20;;;-0.70;99.90;;;;;;5094899;28;20047;-87
2023/01/25 07:06:55;;;;;;;55.03;26.97;;;-0.70;99.90;;;;;;5077327;28;20078;-87
2023/01/25 07:09:23;;;;;;;54.00;27.17;;;-0.70;99.90;;;;;;5076658;28;20116;-87
2023/01/25 07:11:51;;;;;;;55.67;27.63;;;0.80;99.90;;;;;;5077126;28;20032;-87
2023/01/25 07:14:17;;;;;;;57.67;27.77;;;-0.70;99.90;;;;;;5077692;28;20088;-87
2023/01/25 07:16:43;;;;;;;58.80;27.70;;;0.10;99.90;;;;;;5077606;28;20439;-87
2023/01/25 07:19:12;;;;;;;52.87;27.23;;;-0.80;99.90;;;;;;5077117;28;20067;-87
2023/01/25 07:21:38;;;;;;;52.30;26.27;;;-0.80;99.90;;;;;;5077378;28;20040;-87
2023/01/25 07:24:04;;;;;;;50.17;25.93;;;-0.80;99.90;;;;;;5077281;28;20420;-86
2023/01/25 07:26:30;;;;;;;50.77;24.50;;;-0.80;99.90;;;;;;5077809;28;20493;-87
2023/01/25 07:28:57;;;;;;;54.57;25.83;;;-0.90;99.90;;;;;;5077238;28;20489;-86
2023/01/25 07:31:23;;;;;;;49.70;24.93;;;-1.00;99.90;;;;;;5094507;28;20374;-87
2023/01/25 07:33:55;;;;;;;48.73;25.00;;;-1.00;99.90;;;;;;5077387;28;20047;-87
2023/01/25 07:36:21;;;;;;;47.80;24.73;;;-1.00;99.90;;;;;;5077555;28;20062;-87
2023/01/25 07:38:48;;;;;;;46.67;23.93;;;-1.00;99.90;;;;;;5073478;28;20036;-87
2023/01/25 07:41:15;;;;;;;46.33;23.50;;;-1.00;99.90;;;;;;5057200;28;20139;-87
2023/01/25 07:43:40;;;;;;;50.27;25.73;;;-1.00;99.90;;;;;;5079428;28;20035;-87
2023/01/25 07:46:10;;;;;;;48.80;24.00;;;-1.00;99.90;;;;;;5077358;28;20043;-87
2023/01/25 07:48:35;;;;;;;45.60;24.07;;;-1.00;99.90;;;;;;5076702;28;20071;-87
2023/01/25 07:51:21;;;;;;;46.50;22.90;;;-1.00;99.90;;;;;;5076720;28;20136;-87
2023/01/25 07:53:47;;;;;;;50.57;25.17;;;-1.00;99.90;;;;;;5076184;28;20080;-88
2023/01/25 07:56:13;;;;;;;49.77;26.20;;;-1.00;99.90;;;;;;5076904;28;20035;-87
2023/01/25 07:58:39;;;;;;;51.33;25.63;;;-1.00;99.90;;;;;;5074527;28;20123;-87
2023/01/25 08:01:09;;;;;;;46.93;24.50;;;-1.00;99.90;;;;;;5076716;28;20039;-87
2023/01/25 08:03:35;;;;;;;49.47;24.17;;;-1.10;99.90;;;;;;5091600;28;20477;-87
2023/01/25 08:06:04;;;;;;;46.60;24.37;;;-1.10;99.90;;;;;;5093793;28;20045;-88
2023/01/25 08:08:33;;;;;;;48.80;25.47;;;-1.00;99.90;;;;;;5076420;28;20405;-87
2023/01/25 08:11:00;;;;;;;50.40;25.23;;;-1.00;99.90;;;;;;5073500;28;20382;-88
2023/01/25 08:13:26;;;;;;;50.80;25.70;;;-1.00;99.90;;;;;;5076616;28;20450;-87
2023/01/25 08:15:55;;;;;;;47.47;23.87;;;-1.00;99.90;;;;;;5081009;28;20054;-88
2023/01/25 08:18:20;;;;;;;48.43;25.47;;;-1.00;99.90;;;;;;5080615;28;20126;-87
2023/01/25 08:20:46;;;;;;;50.30;25.00;;;-1.00;99.90;;;;;;5097955;28;20148;-87
2023/01/25 08:23:12;;;;;;;48.97;25.53;;;-1.10;99.90;;;;;;5081119;28;20040;-87
2023/01/25 08:25:38;;;;;;;47.23;25.33;;;-1.10;99.90;;;;;;5097707;28;20089;-86
2023/01/25 08:28:04;;;;;;;49.03;25.07;;;-1.00;99.90;;;;;;5080806;28;20051;-87
2023/01/25 08:30:30;;;;;;;49.00;24.77;;;-1.10;99.90;;;;;;5097829;28;20032;-87
2023/01/25 08:32:55;;;;;;;48.43;24.80;;;-1.00;99.90;;;;;;5097313;28;20438;-87
2023/01/25 08:35:21;;;;;;;48.63;23.90;;;-1.00;99.90;;;;;;5080329;28;20039;-87
2023/01/25 08:37:46;;;;;;;48.20;25.20;;;-1.00;99.90;;;;;;5097294;28;20043;-87
2023/01/25 08:40:13;;;;;;;47.73;24.53;;;-1.10;99.90;;;;;;5080280;28;20418;-87
2023/01/25 08:42:38;;;;;;;51.80;25.70;;;-1.00;99.90;;;;;;5080764;28;20036;-87
2023/01/25 08:45:04;;;;;;;51.80;27.13;;;-1.00;99.90;;;;;;5097337;28;20039;-88
2023/01/25 08:47:30;;;;;;;54.97;26.10;;;-1.00;99.90;;;;;;5096256;28;20061;-87
2023/01/25 08:49:55;;;;;;;53.97;25.83;;;-1.00;99.90;;;;;;5096473;28;20039;-87
2023/01/25 08:52:21;;;;;;;48.83;23.80;;;-1.00;99.90;;;;;;5080511;28;20401;-87
2023/01/25 08:54:47;;;;;;;53.90;25.83;;;-1.00;99.90;;;;;;5080295;28;20043;-87
2023/01/25 08:57:12;;;;;;;55.23;26.57;;;-1.00;99.90;;;;;;5079911;28;20040;-87
2023/01/25 08:59:38;;;;;;;55.43;26.40;;;-1.00;99.90;;;;;;5100035;28;20501;-87
2023/01/25 09:02:03;;;;;;;54.13;26.17;;;-1.00;99.90;;;;;;5097104;28;20051;-87
2023/01/25 09:04:29;;;;;;;58.20;26.47;;;-1.00;99.90;;;;;;5080144;28;20080;-87
2023/01/25 09:06:54;;;;;;;55.13;26.97;;;-1.00;99.90;;;;;;5080278;28;20119;-87
2023/01/25 09:09:21;;;;;;;57.33;26.10;;;-0.90;99.90;;;;;;5095797;28;20054;-87
2023/01/25 09:11:47;;;;;;;58.33;28.13;;;-0.90;99.90;;;;;;5096683;28;20058;-87
2023/01/25 09:14:12;;;;;;;60.93;28.13;;;-0.90;99.90;;;;;;5096482;28;20401;-88
2023/01/25 09:16:38;;;;;;;60.57;27.83;;;-0.90;99.90;;;;;;5080127;28;20024;-87
2023/01/25 09:19:04;;;;;;;55.97;25.60;;;-0.90;99.90;;;;;;5079467;28;20043;-87
2023/01/25 09:21:31;;;;;;;55.37;25.47;;;-0.90;99.90;;;;;;5079940;28;20054;-87
2023/01/25 09:23:57;;;;;;;54.00;25.77;;;-0.90;99.90;;;;;;5079465;28;20107;-87
2023/01/25 09:26:23;;;;;;;56.17;26.23;;;-0.90;99.90;;;;;;5079085;28;20034;-87
2023/01/25 09:28:50;;;;;;;56.20;26.07;;;-0.90;99.90;;;;;;5078998;28;20035;-87
2023/01/25 09:31:17;;;;;;;61.03;26.37;;;-0.90;99.90;;;;;;5096768;28;20498;-87
2023/01/25 09:33:43;;;;;;;56.93;26.27;;;-0.90;99.90;;;;;;5075462;28;20047;-86
2023/01/25 09:36:09;;;;;;;53.20;25.10;;;-0.90;99.90;;;;;;5058187;28;20036;-87
2023/01/25 09:38:35;;;;;;;52.97;24.20;;;-0.80;99.90;;;;;;5095988;28;20047;-87
2023/01/25 09:41:21;;;;;;;52.87;24.47;;;-0.90;99.90;;;;;;5079545;28;20508;-87
2023/01/25 09:44:01;;;;;;;59.07;26.80;;;-0.80;99.90;;;;;;5090223;28;20035;-87
2023/01/25 09:46:38;;;;;;;54.87;24.23;;;-0.80;99.90;;;;;;5095213;28;20066;-87
2023/01/25 09:49:25;;;;;;;53.10;22.90;;;-0.80;99.90;;;;;;5078988;28;20114;-87
2023/01/25 09:52:11;;;;;;;55.43;25.03;;;-0.80;99.90;;;;;;5078745;28;20040;-87
2023/01/25 09:54:39;;;;;;;59.03;24.80;;;-0.60;99.90;;;;;;5096199;28;20112;-88
2023/01/25 09:57:15;;;;;;;56.77;25.87;;;-0.80;99.90;;;;;;5096081;28;20040;-87
2023/01/25 09:59:42;;;;;;;52.03;23.33;;;-0.80;99.90;;;;;;5096013;28;20040;-87
2023/01/25 10:02:26;;;;;;;56.83;25.47;;;-0.80;99.90;;;;;;5095976;28;20039;-87
2023/01/25 10:04:53;;;;;;;53.45;24.05;;;-0.70;99.90;;;;;;5078880;28;20050;-88
2023/01/25 10:07:43;;;;;;;59.20;24.83;;;-0.70;99.90;;;;;;5095984;28;20122;-88
2023/01/25 10:10:35;;;;;;;52.40;23.30;;;-0.70;99.90;;;;;;5075698;28;20130;-87
2023/01/25 10:13:01;;;;;;;54.13;23.53;;;-0.60;99.90;;;;;;5075025;28;20581;-87
2023/01/25 10:15:37;;;;;;;55.20;24.93;;;-0.60;99.90;;;;;;5078825;28;20071;-87
2023/01/25 10:18:05;;;;;;;54.63;24.90;;;-0.60;99.90;;;;;;5095265;28;20041;-87
2023/01/25 10:20:35;;;;;;;57.83;24.63;;;-0.50;99.90;;;;;;5095726;28;20046;-87
2023/01/25 10:23:58;;;;;;;58.97;25.23;;;-0.50;99.90;;;;;;5095289;28;20038;-86
2023/01/25 10:26:35;;;;;;;53.90;24.50;;;-0.50;99.90;;;;;;5030918;28;20152;-87
2023/01/25 10:29:15;;;;;;;53.93;24.93;;;-0.50;99.90;;;;;;5005267;28;20112;-88
2023/01/25 10:31:53;;;;;;;57.70;24.37;;;-0.40;99.90;;;;;;5043199;28;20090;-87
2023/01/25 10:34:21;;;;;;;53.63;24.53;;;-0.40;99.90;;;;;;5073656;28;20067;-87
2023/01/25 10:36:52;;;;;;;56.73;24.80;;;-0.40;99.90;;;;;;5077420;28;20080;-87
2023/01/25 10:39:19;;;;;;;57.93;26.27;;;-0.40;99.90;;;;;;5098231;28;20123;-88
2023/01/25 10:41:54;;;;;;;53.87;24.70;;;-0.50;99.90;;;;;;5077641;28;20036;-87
2023/01/25 10:44:27;;;;;;;56.80;26.20;;;-0.40;99.90;;;;;;5095361;28;20035;-88
2023/01/25 10:47:02;;;;;;;51.92;22.95;;;-0.40;99.90;;;;;;5095724;28;20543;-87
2023/01/25 10:49:47;;;;;;;51.77;24.23;;;-0.40;99.90;;;;;;5078231;28;20087;-87
2023/01/25 10:52:22;;;;;;;60.90;24.80;;;-0.40;99.90;;;;;;5076536;28;20040;-87
2023/01/25 10:55:05;;;;;;;52.27;23.40;;;-0.40;99.90;;;;;;5075514;28;20136;-88
2023/01/25 10:57:36;;;;;;;52.83;24.58;;;-0.40;99.90;;;;;;5062548;28;20101;-86
2023/01/25 11:00:09;;;;;;;58.97;25.93;;;0.60;99.90;;;;;;5088243;28;20038;-88
2023/01/25 11:02:34;;;;;;;57.23;25.30;;;-0.30;99.90;;;;;;5106646;28;20089;-88
2023/01/25 11:05:25;;;;;;;60.13;25.03;;;-0.20;99.90;;;;;;5082778;28;20039;-87
2023/01/25 11:07:55;;;;;;;56.93;25.47;;;-0.20;99.90;;;;;;5069685;28;20043;-88
2023/01/25 11:10:35;;;;;;;57.63;24.57;;;-0.20;99.90;;;;;;5094674;28;20095;-87
2023/01/25 11:13:15;;;;;;;60.43;26.37;;;-0.10;99.90;;;;;;5094664;28;20039;-88
2023/01/25 11:15:43;;;;;;;63.77;26.60;;;-0.10;99.90;;;;;;5094731;28;20043;-87
2023/01/25 11:18:27;;;;;;;58.60;25.07;;;0.00;99.90;;;;;;5094061;28;20039;-87
2023/01/25 11:21:27;;;;;;;57.00;25.33;;;0.00;99.90;;;;;;5082985;28;20154;-87
2023/01/25 11:24:32;;;;;;;60.27;25.87;;;0.00;99.90;;;;;;5067088;28;20181;-88
2023/01/25 11:27:31;;;;;;;60.40;24.93;;;0.00;99.90;;;;;;5065908;28;20047;-86
2023/01/25 11:30:14;;;;;;;53.53;23.20;;;0.10;99.90;;;;;;5039893;28;20054;-87
2023/01/25 11:32:40;;;;;;;59.35;24.55;;;0.10;99.90;;;;;;5075278;28;20085;-87
2023/01/25 11:35:14;;;;;;;61.23;24.50;;;0.10;99.90;;;;;;5094293;28;20035;-87
2023/01/25 11:37:58;;;;;;;60.70;25.50;;;0.10;99.90;;;;;;5094102;28;20489;-86
2023/01/25 11:40:55;;;;;;;59.57;25.20;;;0.20;99.90;;;;;;5077120;28;20043;-87
2023/01/25 11:43:42;;;;;;;55.03;23.67;;;0.10;99.90;;;;;;5084902;28;20059;-87
2023/01/25 11:46:30;;;;;;;55.90;23.03;;;0.20;99.90;;;;;;5088244;28;20034;-87
2023/01/25 11:49:01;;;;;;;48.93;21.20;;;-0.30;99.90;;;;;;5084203;28;20481;-86
2023/01/25 11:51:52;;;;;;;57.00;24.57;;;0.20;99.90;;;;;;5063440;28;20042;-86
2023/01/25 11:54:36;;;;;;;59.60;24.27;;;0.30;99.90;;;;;;5077482;28;20062;-86
2023/01/25 11:57:29;;;;;;;54.60;22.58;;;0.30;99.90;;;;;;5093070;28;20050;-86
2023/01/25 12:00:23;;;;;;;57.33;22.92;;;0.30;99.90;;;;;;5093839;28;20040;-86
2023/01/25 12:02:54;;;;;;;53.13;21.73;;;0.30;99.90;;;;;;5093566;28;20093;-86
2023/01/25 12:05:31;;;;;;;59.87;23.23;;;0.30;99.90;;;;;;5079348;28;20039;-86
2023/01/25 12:08:20;;;;;;;59.43;23.93;;;0.30;99.90;;;;;;5077044;28;20088;-86
2023/01/25 12:10:55;;;;;;;57.70;23.03;;;0.20;99.90;;;;;;5076663;28;20059;-86
2023/01/25 12:13:50;;;;;;;53.50;21.53;;;0.30;99.90;;;;;;5093649;28;20413;-86
2023/01/25 12:16:40;;;;;;;52.57;21.17;;;0.30;99.90;;;;;;5076687;28;20042;-86
2023/01/25 12:19:57;;;;;;;55.37;21.83;;;0.40;99.90;;;;;;5073016;28;20127;-86
2023/01/25 12:22:52;;;;;;;49.83;21.70;;;0.40;99.90;;;;;;5073609;28;20127;-86
2023/01/25 12:25:36;;;;;;;53.63;22.17;;;0.50;99.90;;;;;;5076618;28;20065;-86
2023/01/25 12:28:19;;;;;;;53.33;21.23;;;0.40;99.90;;;;;;5093475;28;20123;-86
2023/01/25 12:30:52;;;;;;;50.60;21.10;;;0.40;99.90;;;;;;5093426;28;20537;-86
2023/01/25 12:33:24;;;;;;;50.00;20.67;;;0.50;99.90;;;;;;5093359;28;20501;-86
2023/01/25 12:36:21;;;;;;;57.47;22.20;;;0.40;99.90;;;;;;5093600;28;20077;-86
2023/01/25 12:38:59;;;;;;;52.83;21.67;;;0.40;99.90;;;;;;5076212;28;20032;-86
2023/01/25 12:41:39;;;;;;;56.13;21.77;;;0.40;99.90;;;;;;5076353;28;20614;-86
2023/01/25 12:44:30;;;;;;;52.23;21.27;;;0.40;99.90;;;;;;5093257;28;20032;-86
2023/01/25 12:47:28;;;;;;;52.07;21.73;;;0.40;99.90;;;;;;5076473;28;20032;-86